createdAt,value
2022-10-16T00:01:13.085Z,98169.91
2022-10-16T00:03:40.856Z,98172.34
2022-10-16T00:06:08.263Z,98171.94
2022-10-16T00:08:35.436Z,98166.22
2022-10-16T00:11:08.233Z,98160.03
2022-10-16T00:13:36.511Z,98158.81
2022-10-16T00:16:04.425Z,98153.06
2022-10-16T00:18:31.963Z,98160.66
2022-10-16T00:21:13.470Z,98160.19
2022-10-16T00:23:40.134Z,98163.28
2022-10-16T00:26:10.034Z,98162.63
2022-10-16T00:28:36.890Z,98156.47
2022-10-16T00:31:08.495Z,98154.63
2022-10-16T00:33:36.010Z,98156.66
2022-10-16T00:36:04.455Z,98157.47
2022-10-16T00:38:31.824Z,98163.81
2022-10-16T00:40:58.509Z,98161.13
2022-10-16T00:43:39.489Z,98167.47
2022-10-16T00:46:13.611Z,98168.69
2022-10-16T00:48:40.354Z,98167.88
2022-10-16T00:51:07.724Z,98175.88
2022-10-16T00:53:34.696Z,98171.97
2022-10-16T00:56:01.501Z,98173.84
2022-10-16T00:58:28.241Z,98173.63
2022-10-16T01:00:54.962Z,98175.06
2022-10-16T01:03:31.771Z,98168.63
2022-10-16T01:06:16.089Z,98158.56
2022-10-16T01:09:07.444Z,98177.25
2022-10-16T01:11:55.235Z,98179.31
2022-10-16T01:14:35.411Z,98193.75
2022-10-16T01:17:16.805Z,98194.78
2022-10-16T01:20:04.655Z,98181.47
2022-10-16T01:22:58.387Z,98181.06
2022-10-16T01:25:37.059Z,98189.28
2022-10-16T01:28:06.002Z,98181.50
2022-10-16T01:30:33.644Z,98175.78
2022-10-16T01:33:13.161Z,98172.50
2022-10-16T01:35:43.343Z,98183.38
2022-10-16T01:38:14.815Z,98180.28
2022-10-16T01:40:45.781Z,98180.09
2022-10-16T01:43:20.323Z,98185.03
2022-10-16T01:45:47.339Z,98180.53
2022-10-16T01:48:17.823Z,98180.53
2022-10-16T01:50:46.158Z,98169.41
2022-10-16T01:53:15.023Z,98176.41
2022-10-16T01:55:46.194Z,98180.50
2022-10-16T01:58:15.052Z,98174.13
2022-10-16T02:00:44.638Z,98172.91
2022-10-16T02:03:13.228Z,98166.53
2022-10-16T02:05:47.579Z,98167.75
2022-10-16T02:08:15.193Z,98167.38
2022-10-16T02:10:42.039Z,98157.28
2022-10-16T02:13:18.272Z,98155.47
2022-10-16T02:15:44.987Z,98160.81
2022-10-16T02:18:11.916Z,98166.16
2022-10-16T02:20:47.865Z,98163.28
2022-10-16T02:23:19.639Z,98166.97
2022-10-16T02:25:47.455Z,98168.63
2022-10-16T02:28:17.896Z,98170.47
2022-10-16T02:30:54.204Z,98167.59
2022-10-16T02:33:22.475Z,98171.50
2022-10-16T02:35:49.947Z,98173.72
2022-10-16T02:38:17.651Z,98174.34
2022-10-16T02:40:44.524Z,98168.19
2022-10-16T02:43:11.772Z,98167.78
2022-10-16T02:45:38.444Z,98164.09
2022-10-16T02:48:05.455Z,98175.78
2022-10-16T02:50:32.040Z,98176.81
2022-10-16T02:52:58.605Z,98172.50
2022-10-16T02:55:25.392Z,98175.56
2022-10-16T02:57:51.989Z,98174.13
2022-10-16T03:00:18.851Z,98170.59
2022-10-16T03:02:45.465Z,98175.34
2022-10-16T03:05:12.297Z,98175.69
2022-10-16T03:07:38.915Z,98176.91
2022-10-16T03:10:06.009Z,98183.25
2022-10-16T03:12:32.736Z,98183.25
2022-10-16T03:14:59.774Z,98186.53
2022-10-16T03:17:26.731Z,98189.63
2022-10-16T03:19:53.615Z,98181.97
2022-10-16T03:22:20.337Z,98188.97
2022-10-16T03:24:47.059Z,98187.13
2022-10-16T03:27:13.684Z,98187.75
2022-10-16T03:29:40.420Z,98191.25
2022-10-16T03:32:07.059Z,98193.53
2022-10-16T03:34:34.113Z,98187.38
2022-10-16T03:37:00.797Z,98185.28
2022-10-16T03:39:28.147Z,98189.38
2022-10-16T03:41:54.779Z,98180.75
2022-10-16T03:44:25.045Z,98179.28
2022-10-16T03:46:51.905Z,98182.59
2022-10-16T03:49:18.602Z,98181.97
2022-10-16T03:51:45.236Z,98184.00
2022-10-16T03:54:12.025Z,98194.28
2022-10-16T03:56:39.317Z,98188.13
2022-10-16T03:59:06.001Z,98193.06
2022-10-16T04:01:32.547Z,98191.00
2022-10-16T04:03:59.185Z,98190.75
2022-10-16T04:06:25.753Z,98199.97
2022-10-16T04:08:52.482Z,98193.28
2022-10-16T04:11:19.169Z,98195.78
2022-10-16T04:13:45.853Z,98198.47
2022-10-16T04:16:12.535Z,98202.41
2022-10-16T04:18:39.253Z,98197.44
2022-10-16T04:21:07.207Z,98198.88
2022-10-16T04:23:33.968Z,98200.06
2022-10-16T04:26:00.981Z,98195.78
2022-10-16T04:28:28.335Z,98197.81
2022-10-16T04:30:55.097Z,98204.13
2022-10-16T04:33:21.702Z,98203.53
2022-10-16T04:35:48.315Z,98199.41
2022-10-16T04:38:14.982Z,98203.47
2022-10-16T04:40:43.356Z,98201.84
2022-10-16T04:43:10.400Z,98197.31
2022-10-16T04:45:37.020Z,98212.53
2022-10-16T04:48:03.838Z,98213.59
2022-10-16T04:50:30.508Z,98217.53
2022-10-16T04:53:07.003Z,98221.28
2022-10-16T04:55:33.758Z,98218.41
2022-10-16T04:58:00.616Z,98217.78
2022-10-16T05:00:27.343Z,98218.59
2022-10-16T05:02:54.103Z,98223.31
2022-10-16T05:05:25.667Z,98231.56
2022-10-16T05:07:52.537Z,98235.25
2022-10-16T05:10:19.368Z,98242.22
2022-10-16T05:12:46.091Z,98236.06
2022-10-16T05:15:14.333Z,98240.59
2022-10-16T05:17:43.919Z,98234.84
2022-10-16T05:20:12.108Z,98243.03
2022-10-16T05:22:41.713Z,98240.19
2022-10-16T05:25:08.670Z,98235.88
2022-10-16T05:27:35.289Z,98226.44
2022-10-16T05:30:02.044Z,98232.75
2022-10-16T05:32:28.752Z,98225.78
2022-10-16T05:34:55.436Z,98240.97
2022-10-16T05:37:22.092Z,98235.00
2022-10-16T05:39:48.702Z,98236.84
2022-10-16T05:42:15.929Z,98229.47
2022-10-16T05:44:42.674Z,98244.66
2022-10-16T05:47:09.807Z,98245.47
2022-10-16T05:49:39.216Z,98250.00
2022-10-16T05:52:08.114Z,98251.84
2022-10-16T05:54:34.800Z,98245.44
2022-10-16T05:57:05.027Z,98247.44
2022-10-16T05:59:31.670Z,98249.06
2022-10-16T06:01:58.355Z,98257.06
2022-10-16T06:04:25.134Z,98257.91
2022-10-16T06:06:51.770Z,98264.50
2022-10-16T06:09:18.450Z,98264.75
2022-10-16T06:11:45.054Z,98263.53
2022-10-16T06:14:11.716Z,98271.78
2022-10-16T06:16:39.561Z,98270.59
2022-10-16T06:19:13.449Z,98269.78
2022-10-16T06:21:47.161Z,98270.88
2022-10-16T06:24:14.399Z,98278.69
2022-10-16T06:26:41.029Z,98280.72
2022-10-16T06:29:09.629Z,98284.41
2022-10-16T06:31:36.347Z,98289.56
2022-10-16T06:34:03.231Z,98286.63
2022-10-16T06:36:32.710Z,98280.31
2022-10-16T06:39:02.871Z,98282.59
2022-10-16T06:41:29.570Z,98283.25
2022-10-16T06:43:57.071Z,98286.56
2022-10-16T06:46:33.144Z,98286.41
2022-10-16T06:48:59.744Z,98282.59
2022-10-16T06:51:26.710Z,98295.75
2022-10-16T06:54:04.028Z,98305.00
2022-10-16T06:56:32.536Z,98303.31
2022-10-16T06:58:59.529Z,98306.63
2022-10-16T07:01:26.954Z,98314.88
2022-10-16T07:04:02.884Z,98321.84
2022-10-16T07:06:32.920Z,98326.78
2022-10-16T07:08:59.603Z,98330.47
2022-10-16T07:11:31.712Z,98332.75
2022-10-16T07:13:58.307Z,98338.44
2022-10-16T07:16:29.110Z,98337.09
2022-10-16T07:19:01.038Z,98346.59
2022-10-16T07:21:36.956Z,98338.31
2022-10-16T07:24:05.597Z,98340.81
2022-10-16T07:26:34.276Z,98348.47
2022-10-16T07:29:01.883Z,98350.50
2022-10-16T07:31:28.930Z,98356.47
2022-10-16T07:33:56.894Z,98363.03
2022-10-16T07:36:23.732Z,98365.72
2022-10-16T07:38:52.881Z,98362.84
2022-10-16T07:41:22.365Z,98372.69
2022-10-16T07:43:53.258Z,98374.34
2022-10-16T07:46:21.052Z,98375.53
2022-10-16T07:48:49.132Z,98375.94
2022-10-16T07:51:18.410Z,98370.13
2022-10-16T07:53:45.450Z,98379.03
2022-10-16T07:56:12.903Z,98379.03
2022-10-16T07:58:39.859Z,98379.63
2022-10-16T08:01:08.748Z,98386.66
2022-10-16T08:03:35.856Z,98386.66
2022-10-16T08:06:03.378Z,98382.13
2022-10-16T08:08:30.078Z,98388.56
2022-10-16T08:10:56.848Z,98387.59
2022-10-16T08:13:23.583Z,98380.63
2022-10-16T08:15:50.251Z,98387.03
2022-10-16T08:18:17.310Z,98391.78
2022-10-16T08:20:44.528Z,98393.41
2022-10-16T08:23:13.438Z,98394.09
2022-10-16T08:25:41.087Z,98392.69
2022-10-16T08:28:09.871Z,98382.22
2022-10-16T08:30:36.699Z,98397.69
2022-10-16T08:33:03.896Z,98407.00
2022-10-16T08:35:30.651Z,98409.75
2022-10-16T08:37:57.427Z,98423.16
2022-10-16T08:40:29.944Z,98417.59
2022-10-16T08:43:05.771Z,98418.25
2022-10-16T08:46:04.259Z,98414.31
2022-10-16T08:48:37.430Z,98422.97
2022-10-16T08:51:05.561Z,98420.09
2022-10-16T08:53:39.751Z,98421.94
2022-10-16T08:56:06.798Z,98419.88
2022-10-16T08:58:33.535Z,98415.97
2022-10-16T09:01:02.966Z,98414.94
2022-10-16T09:04:10.259Z,98418.25
2022-10-16T09:06:45.465Z,98415.97
2022-10-16T09:09:15.025Z,98418.03
2022-10-16T09:11:47.284Z,98417.00
2022-10-16T09:14:37.338Z,98420.91
2022-10-16T09:17:23.926Z,98419.88
2022-10-16T09:20:29.723Z,98433.91
2022-10-16T09:23:21.849Z,98428.34
2022-10-16T09:25:50.932Z,98423.41
2022-10-16T09:28:19.319Z,98424.81
2022-10-16T09:30:49.597Z,98439.69
2022-10-16T09:33:17.167Z,98455.72
2022-10-16T09:35:52.587Z,98439.88
2022-10-16T09:38:37.634Z,98448.72
2022-10-16T09:41:22.210Z,98458.03
2022-10-16T09:43:57.698Z,98457.19
2022-10-16T09:46:31.323Z,98448.97
2022-10-16T09:49:01.099Z,98458.03
2022-10-16T09:51:32.579Z,98448.75
2022-10-16T09:54:09.565Z,98450.84
2022-10-16T09:56:39.746Z,98451.47
2022-10-16T09:59:17.303Z,98450.59
2022-10-16T10:01:46.921Z,98454.31
2022-10-16T10:04:13.821Z,98453.47
2022-10-16T10:06:47.098Z,98466.63
2022-10-16T10:09:20.298Z,98470.72
2022-10-16T10:11:55.732Z,98470.84
2022-10-16T10:14:37.342Z,98478.31
2022-10-16T10:17:12.156Z,98482.28
2022-10-16T10:19:51.095Z,98473.19
2022-10-16T10:22:31.294Z,98473.72
2022-10-16T10:25:13.720Z,98474.88
2022-10-16T10:28:18.204Z,98469.09
2022-10-16T10:31:00.662Z,98478.63
2022-10-16T10:33:51.137Z,98471.78
2022-10-16T10:36:29.196Z,98478.41
2022-10-16T10:39:04.892Z,98469.56
2022-10-16T10:41:31.871Z,98470.13
2022-10-16T10:44:16.453Z,98471.16
2022-10-16T10:46:49.824Z,98474.53
2022-10-16T10:49:48.137Z,98472.72
2022-10-16T10:52:45.752Z,98471.31
2022-10-16T10:55:19.813Z,98470.50
2022-10-16T10:58:05.124Z,98472.84
2022-10-16T11:00:47.930Z,98473.81
2022-10-16T11:03:36.505Z,98470.00
2022-10-16T11:06:10.810Z,98474.84
2022-10-16T11:09:16.463Z,98470.34
2022-10-16T11:11:46.788Z,98472.69
2022-10-16T11:14:32.943Z,98472.91
2022-10-16T11:17:03.769Z,98470.69
2022-10-16T11:19:43.002Z,98461.78
2022-10-16T11:22:20.974Z,98458.66
2022-10-16T11:24:54.764Z,98468.22
2022-10-16T11:27:35.439Z,98450.19
2022-10-16T11:30:06.039Z,98452.25
2022-10-16T11:33:06.980Z,98450.97
2022-10-16T11:35:45.475Z,98450.53
2022-10-16T11:38:28.248Z,98444.91
2022-10-16T11:40:58.963Z,98449.28
2022-10-16T11:43:44.485Z,98454.22
2022-10-16T11:46:21.791Z,98457.50
2022-10-16T11:49:03.779Z,98447.09
2022-10-16T11:51:40.514Z,98449.13
2022-10-16T11:54:42.394Z,98454.97
2022-10-16T11:57:29.293Z,98452.50
2022-10-16T12:00:05.495Z,98450.84
2022-10-16T12:02:46.757Z,98454.66
2022-10-16T12:05:42.115Z,98458.97
2022-10-16T12:08:16.309Z,98452.41
2022-10-16T12:10:45.573Z,98447.34
2022-10-16T12:13:32.455Z,98445.16
2022-10-16T12:16:09.035Z,98442.00
2022-10-16T12:18:35.771Z,98440.22
2022-10-16T12:21:08.677Z,98437.72
2022-10-16T12:23:47.373Z,98451.41
2022-10-16T12:26:14.120Z,98439.25
2022-10-16T12:28:41.830Z,98450.38
2022-10-16T12:31:11.082Z,98446.44
2022-10-16T12:33:39.144Z,98442.22
2022-10-16T12:36:16.433Z,98447.50
2022-10-16T12:38:51.843Z,98442.41
2022-10-16T12:41:30.257Z,98439.97
2022-10-16T12:43:57.427Z,98439.94
2022-10-16T12:46:30.161Z,98445.47
2022-10-16T12:49:15.054Z,98448.72
2022-10-16T12:51:42.967Z,98454.88
2022-10-16T12:54:21.681Z,98451.06
2022-10-16T12:57:13.158Z,98458.44
2022-10-16T12:59:57.952Z,98450.91
2022-10-16T13:02:59.995Z,98454.81
2022-10-16T13:05:53.296Z,98458.88
2022-10-16T13:08:50.562Z,98459.16
2022-10-16T13:11:45.130Z,98465.34
2022-10-16T13:14:33.471Z,98470.09
2022-10-16T13:17:00.125Z,98469.84
2022-10-16T13:19:41.997Z,98469.25
2022-10-16T13:22:30.713Z,98463.84
2022-10-16T13:25:13.880Z,98463.69
2022-10-16T13:27:47.186Z,98457.78
2022-10-16T13:30:19.746Z,98460.97
2022-10-16T13:32:49.438Z,98463.00
2022-10-16T13:35:21.381Z,98456.41
2022-10-16T13:37:48.076Z,98452.34
2022-10-16T13:40:21.379Z,98458.88
2022-10-16T13:42:48.316Z,98459.69
2022-10-16T13:45:41.295Z,98457.88
2022-10-16T13:48:13.430Z,98461.31
2022-10-16T13:50:40.269Z,98468.66
2022-10-16T13:53:14.061Z,98463.00
2022-10-16T13:55:41.006Z,98465.63
2022-10-16T13:58:16.781Z,98467.34
2022-10-16T14:01:01.360Z,98465.31
2022-10-16T14:03:29.747Z,98467.66
2022-10-16T14:05:59.893Z,98465.72
2022-10-16T14:08:27.898Z,98466.88
2022-10-16T14:10:58.283Z,98466.88
2022-10-16T14:13:59.448Z,98454.19
2022-10-16T14:16:31.166Z,98453.00
2022-10-16T14:19:02.934Z,98456.97
2022-10-16T14:21:29.812Z,98456.69
2022-10-16T14:23:57.048Z,98462.91
2022-10-16T14:26:26.981Z,98466.25
2022-10-16T14:29:12.095Z,98467.78
2022-10-16T14:31:40.702Z,98470.47
2022-10-16T14:34:33.976Z,98461.50
2022-10-16T14:37:34.796Z,98459.22
2022-10-16T14:40:02.743Z,98460.56
2022-10-16T14:42:29.427Z,98471.47
2022-10-16T14:44:57.910Z,98470.66
2022-10-16T14:47:27.919Z,98472.25
2022-10-16T14:50:00.153Z,98466.59
2022-10-16T14:52:26.898Z,98474.69
2022-10-16T14:54:57.494Z,98475.53
2022-10-16T14:57:27.464Z,98476.72
2022-10-16T14:59:54.634Z,98481.19
2022-10-16T15:02:30.361Z,98479.41
2022-10-16T15:04:57.726Z,98478.59
2022-10-16T15:07:24.851Z,98477.00
2022-10-16T15:09:52.226Z,98475.44
2022-10-16T15:12:18.862Z,98485.53
2022-10-16T15:14:45.700Z,98481.06
2022-10-16T15:17:12.618Z,98477.16
2022-10-16T15:19:39.794Z,98478.81
2022-10-16T15:22:06.485Z,98482.38
2022-10-16T15:24:33.468Z,98481.13
2022-10-16T15:27:00.178Z,98486.13
2022-10-16T15:29:26.823Z,98482.84
2022-10-16T15:31:53.553Z,98483.59
2022-10-16T15:34:20.713Z,98472.75
2022-10-16T15:36:47.609Z,98476.56
2022-10-16T15:39:20.223Z,98470.84
2022-10-16T15:41:52.109Z,98480.63
2022-10-16T15:44:19.224Z,98479.47
2022-10-16T15:46:45.913Z,98486.34
2022-10-16T15:49:13.064Z,98487.81
2022-10-16T15:51:41.111Z,98487.28
2022-10-16T15:54:08.197Z,98486.91
2022-10-16T15:56:34.933Z,98495.97
2022-10-16T15:59:02.960Z,98498.06
2022-10-16T16:01:30.536Z,98494.16
2022-10-16T16:03:57.368Z,98492.94
2022-10-16T16:06:24.889Z,98488.19
2022-10-16T16:08:52.411Z,98481.59
2022-10-16T16:11:20.212Z,98486.78
2022-10-16T16:13:46.952Z,98490.50
2022-10-16T16:16:15.998Z,98492.41
2022-10-16T16:18:43.341Z,98489.56
2022-10-16T16:21:12.501Z,98490.38
2022-10-16T16:23:39.450Z,98483.81
2022-10-16T16:26:13.240Z,98491.25
2022-10-16T16:28:41.579Z,98482.41
2022-10-16T16:31:08.905Z,98495.44
2022-10-16T16:33:35.912Z,98491.97
2022-10-16T16:36:08.289Z,98497.16
2022-10-16T16:38:37.105Z,98495.91
2022-10-16T16:41:21.567Z,98500.44
2022-10-16T16:43:48.547Z,98504.16
2022-10-16T16:46:16.146Z,98501.28
2022-10-16T16:48:43.315Z,98505.81
2022-10-16T16:51:17.027Z,98511.59
2022-10-16T16:53:44.529Z,98503.34
2022-10-16T16:56:11.681Z,98510.56
2022-10-16T16:58:39.435Z,98511.81
2022-10-16T17:01:19.300Z,98519.63
2022-10-16T17:03:47.208Z,98532.03
2022-10-16T17:06:15.456Z,98524.63
2022-10-16T17:08:45.080Z,98531.84
2022-10-16T17:11:17.660Z,98531.22
2022-10-16T17:13:44.469Z,98537.44
2022-10-16T17:16:11.828Z,98539.50
2022-10-16T17:18:38.525Z,98541.34
2022-10-16T17:21:07.829Z,98540.72
2022-10-16T17:23:35.205Z,98545.06
2022-10-16T17:26:22.110Z,98538.47
2022-10-16T17:28:55.545Z,98541.75
2022-10-16T17:31:34.357Z,98549.81
2022-10-16T17:34:02.279Z,98551.88
2022-10-16T17:36:31.284Z,98556.84
2022-10-16T17:39:04.608Z,98554.16
2022-10-16T17:41:31.443Z,98552.47
2022-10-16T17:43:58.203Z,98560.75
2022-10-16T17:46:25.511Z,98564.44
2022-10-16T17:48:54.598Z,98564.66
2022-10-16T17:51:24.212Z,98575.81
2022-10-16T17:53:56.375Z,98568.16
2022-10-16T17:56:24.403Z,98573.09
2022-10-16T17:58:52.885Z,98574.13
2022-10-16T18:01:25.362Z,98579.28
2022-10-16T18:03:54.089Z,98575.94
2022-10-16T18:06:23.199Z,98580.66
2022-10-16T18:08:51.409Z,98581.09
2022-10-16T18:11:18.563Z,98583.53
2022-10-16T18:13:45.294Z,98581.28
2022-10-16T18:16:13.830Z,98586.22
2022-10-16T18:18:43.312Z,98585.00
2022-10-16T18:21:14.906Z,98585.41
2022-10-16T18:23:41.988Z,98587.88
2022-10-16T18:26:10.525Z,98596.53
2022-10-16T18:28:37.248Z,98600.84
2022-10-16T18:31:06.888Z,98600.22
2022-10-16T18:33:34.370Z,98602.25
2022-10-16T18:36:02.900Z,98606.97
2022-10-16T18:38:30.552Z,98598.50
2022-10-16T18:40:57.771Z,98601.75
2022-10-16T18:43:24.891Z,98607.09
2022-10-16T18:46:18.831Z,98611.38
2022-10-16T18:48:47.217Z,98610.38
2022-10-16T18:51:18.161Z,98614.03
2022-10-16T18:53:47.093Z,98618.16
2022-10-16T18:56:15.231Z,98623.13
2022-10-16T18:58:43.300Z,98617.94
2022-10-16T19:01:16.708Z,98621.66
2022-10-16T19:03:44.155Z,98623.69
2022-10-16T19:06:13.731Z,98625.13
2022-10-16T19:08:41.169Z,98624.31
2022-10-16T19:11:16.060Z,98631.91
2022-10-16T19:13:44.273Z,98630.03
2022-10-16T19:16:20.230Z,98628.75
2022-10-16T19:18:48.570Z,98632.28
2022-10-16T19:21:16.029Z,98628.97
2022-10-16T19:23:43.131Z,98626.28
2022-10-16T19:26:13.038Z,98640.44
2022-10-16T19:28:40.359Z,98637.16
2022-10-16T19:31:12.774Z,98645.59
2022-10-16T19:33:40.530Z,98646.63
2022-10-16T19:36:11.490Z,98642.91
2022-10-16T19:38:39.291Z,98646.25
2022-10-16T19:41:18.844Z,98647.44
2022-10-16T19:43:46.677Z,98646.81
2022-10-16T19:46:16.185Z,98652.81
2022-10-16T19:48:42.951Z,98648.19
2022-10-16T19:51:15.578Z,98651.47
2022-10-16T19:53:42.593Z,98651.00
2022-10-16T19:56:21.910Z,98650.00
2022-10-16T19:58:49.303Z,98647.31
2022-10-16T20:01:16.679Z,98654.72
2022-10-16T20:03:44.173Z,98662.31
2022-10-16T20:06:11.225Z,98657.53
2022-10-16T20:08:39.340Z,98668.00
2022-10-16T20:11:07.821Z,98670.25
2022-10-16T20:13:38.429Z,98673.09
2022-10-16T20:16:08.473Z,98674.13
2022-10-16T20:18:35.218Z,98682.50
2022-10-16T20:21:02.345Z,98679.22
2022-10-16T20:23:29.143Z,98685.13
2022-10-16T20:26:03.909Z,98693.56
2022-10-16T20:28:31.171Z,98695.75
2022-10-16T20:30:57.879Z,98699.63
2022-10-16T20:33:24.869Z,98705.75
2022-10-16T20:35:51.778Z,98706.72
2022-10-16T20:38:18.891Z,98710.03
2022-10-16T20:40:47.832Z,98713.34
2022-10-16T20:43:16.799Z,98705.88
2022-10-16T20:45:44.219Z,98723.41
2022-10-16T20:48:11.411Z,98719.03
2022-10-16T20:50:39.756Z,98721.50
2022-10-16T20:53:07.073Z,98725.16
2022-10-16T20:55:36.063Z,98723.03
2022-10-16T20:58:03.463Z,98726.56
2022-10-16T21:00:30.259Z,98732.91
2022-10-16T21:02:57.461Z,98737.38
2022-10-16T21:05:24.101Z,98739.97
2022-10-16T21:07:50.812Z,98742.38
2022-10-16T21:10:19.182Z,98745.59
2022-10-16T21:12:45.920Z,98748.88
2022-10-16T21:15:15.389Z,98750.47
2022-10-16T21:17:42.668Z,98758.56
2022-10-16T21:20:09.523Z,98762.63
2022-10-16T21:22:36.290Z,98765.84
2022-10-16T21:25:02.982Z,98757.19
2022-10-16T21:27:30.811Z,98762.53
2022-10-16T21:29:57.432Z,98759.97
2022-10-16T21:32:24.163Z,98767.41
2022-10-16T21:34:51.246Z,98766.66
2022-10-16T21:37:17.867Z,98768.50
2022-10-16T21:39:44.937Z,98761.69
2022-10-16T21:42:11.566Z,98765.56
2022-10-16T21:44:38.970Z,98768.06
2022-10-16T21:47:05.674Z,98772.38
2022-10-16T21:49:32.351Z,98765.19
2022-10-16T21:51:59.154Z,98761.81
2022-10-16T21:54:25.938Z,98761.44
2022-10-16T21:56:53.133Z,98763.34
2022-10-16T21:59:20.157Z,98759.03
2022-10-16T22:01:47.098Z,98765.41
2022-10-16T22:04:15.681Z,98770.25
2022-10-16T22:06:42.487Z,98767.13
2022-10-16T22:09:12.691Z,98764.00
2022-10-16T22:11:39.378Z,98765.19
2022-10-16T22:14:08.443Z,98761.31
2022-10-16T22:16:36.345Z,98769.16
2022-10-16T22:19:07.137Z,98780.56
2022-10-16T22:21:35.755Z,98768.97
2022-10-16T22:24:02.511Z,98772.44
2022-10-16T22:26:29.261Z,98767.13
2022-10-16T22:28:56.334Z,98766.84
2022-10-16T22:31:23.948Z,98768.84
2022-10-16T22:33:57.310Z,98774.00
2022-10-16T22:36:24.603Z,98773.66
2022-10-16T22:38:51.756Z,98768.69
2022-10-16T22:41:18.451Z,98765.34
2022-10-16T22:43:48.265Z,98773.28
2022-10-16T22:46:20.576Z,98772.16
2022-10-16T22:48:47.295Z,98781.44
2022-10-16T22:51:16.860Z,98772.31
2022-10-16T22:53:45.404Z,98770.03
2022-10-16T22:56:13.029Z,98774.06
2022-10-16T22:58:39.762Z,98774.78
2022-10-16T23:01:19.548Z,98777.63
2022-10-16T23:03:46.805Z,98778.81
2022-10-16T23:06:13.721Z,98779.81
2022-10-16T23:08:41.096Z,98778.34
2022-10-16T23:11:09.762Z,98780.72
2022-10-16T23:13:43.563Z,98783.59
2022-10-16T23:16:12.348Z,98788.38
2022-10-16T23:18:39.351Z,98785.22
2022-10-16T23:21:11.217Z,98781.91
2022-10-16T23:23:38.499Z,98783.38
2022-10-16T23:26:14.460Z,98785.91
2022-10-16T23:28:41.719Z,98791.41
2022-10-16T23:31:08.990Z,98796.44
2022-10-16T23:33:37.141Z,98796.16
2022-10-16T23:36:08.899Z,98793.50
2022-10-16T23:38:35.826Z,98805.53
2022-10-16T23:41:02.703Z,98804.03
2022-10-16T23:43:30.017Z,98805.84
2022-10-16T23:45:56.967Z,98804.69
2022-10-16T23:48:23.808Z,98803.31
2022-10-16T23:50:50.541Z,98801.44
2022-10-16T23:53:17.703Z,98806.09
2022-10-16T23:55:44.397Z,98809.59
2022-10-16T23:58:11.246Z,98816.41
